createdAt,value
2019-01-09T00:00:49.272Z,4.40
2019-01-09T00:03:17.568Z,4.40
2019-01-09T00:05:45.660Z,4.30
2019-01-09T00:08:13.713Z,4.30
2019-01-09T00:10:42.110Z,4.30
2019-01-09T00:13:10.390Z,4.30
2019-01-09T00:15:38.665Z,4.30
2019-01-09T00:18:06.791Z,4.30
2019-01-09T00:20:35.950Z,4.30
2019-01-09T00:23:04.280Z,4.30
2019-01-09T00:25:32.481Z,4.20
2019-01-09T00:28:00.586Z,4.30
2019-01-09T00:30:28.743Z,4.30
2019-01-09T00:32:57.029Z,4.30
2019-01-09T00:35:25.297Z,4.30
2019-01-09T00:37:53.677Z,4.30
2019-01-09T00:40:21.816Z,4.30
2019-01-09T00:42:50.187Z,4.20
2019-01-09T00:45:18.924Z,4.20
2019-01-09T00:47:46.997Z,4.20
2019-01-09T00:50:15.567Z,4.20
2019-01-09T00:52:43.745Z,4.30
2019-01-09T00:55:12.072Z,4.30
2019-01-09T00:57:40.342Z,4.30
2019-01-09T01:00:14.820Z,4.30
2019-01-09T01:03:32.395Z,4.20
2019-01-09T01:07:02.100Z,4.20
2019-01-09T01:10:54.618Z,4.20
2019-01-09T01:14:12.327Z,4.20
2019-01-09T01:18:05.790Z,4.20
2019-01-09T01:20:48.205Z,4.20
2019-01-09T01:24:15.954Z,4.20
2019-01-09T01:27:15.842Z,4.20
2019-01-09T01:30:36.216Z,4.20
2019-01-09T01:33:50.073Z,4.10
2019-01-09T01:36:59.449Z,4.10
2019-01-09T01:40:16.903Z,4.20
2019-01-09T01:43:22.634Z,4.20
2019-01-09T01:47:07.441Z,4.20
2019-01-09T01:50:40.641Z,4.20
2019-01-09T01:53:54.070Z,4.20
2019-01-09T01:57:12.147Z,4.20
2019-01-09T02:00:33.753Z,4.10
2019-01-09T02:03:54.125Z,4.00
2019-01-09T02:07:24.032Z,4.10
2019-01-09T02:10:51.280Z,4.00
2019-01-09T02:14:29.736Z,4.00
2019-01-09T02:18:12.292Z,4.00
2019-01-09T02:21:31.442Z,4.00
2019-01-09T02:24:57.129Z,4.00
2019-01-09T02:28:18.664Z,3.90
2019-01-09T02:31:18.452Z,4.00
2019-01-09T02:33:46.619Z,3.90
2019-01-09T02:36:14.767Z,3.80
2019-01-09T02:38:42.967Z,3.80
2019-01-09T02:41:11.099Z,3.80
2019-01-09T02:43:39.256Z,3.80
2019-01-09T02:46:07.464Z,3.90
2019-01-09T02:48:35.617Z,3.90
2019-01-09T02:51:04.007Z,3.80
2019-01-09T02:53:32.178Z,3.90
2019-01-09T02:56:00.248Z,3.80
2019-01-09T02:58:28.666Z,3.80
2019-01-09T03:00:58.337Z,3.80
2019-01-09T03:03:26.545Z,3.80
2019-01-09T03:05:54.657Z,3.80
2019-01-09T03:08:22.958Z,3.80
2019-01-09T03:10:51.731Z,3.80
2019-01-09T03:13:19.884Z,3.80
2019-01-09T03:15:48.083Z,3.80
2019-01-09T03:18:16.181Z,3.90
2019-01-09T03:20:47.748Z,3.90
2019-01-09T03:23:15.867Z,3.90
2019-01-09T03:25:43.958Z,3.80
2019-01-09T03:28:12.235Z,3.80
2019-01-09T03:30:40.428Z,3.80
2019-01-09T03:33:08.636Z,3.80
2019-01-09T03:35:36.777Z,3.80
2019-01-09T03:38:04.923Z,3.80
2019-01-09T03:40:33.057Z,3.80
2019-01-09T03:43:01.153Z,3.80
2019-01-09T03:45:29.463Z,3.80
2019-01-09T03:47:57.602Z,3.80
2019-01-09T03:50:25.862Z,3.80
2019-01-09T03:52:53.970Z,3.80
2019-01-09T03:55:22.229Z,3.80
2019-01-09T03:57:50.337Z,3.90
2019-01-09T04:00:18.575Z,3.90
2019-01-09T04:02:46.675Z,3.90
2019-01-09T04:05:14.715Z,3.90
2019-01-09T04:07:42.821Z,3.90
2019-01-09T04:10:10.975Z,3.90
2019-01-09T04:12:39.128Z,4.00
2019-01-09T04:15:08.169Z,4.00
2019-01-09T04:17:37.272Z,3.90
2019-01-09T04:20:05.797Z,4.00
2019-01-09T04:22:33.890Z,4.00
2019-01-09T04:25:02.133Z,4.00
2019-01-09T04:27:30.339Z,4.00
2019-01-09T04:29:58.546Z,3.90
2019-01-09T04:32:26.689Z,4.00
2019-01-09T04:34:54.761Z,4.00
2019-01-09T04:37:22.935Z,4.00
2019-01-09T04:39:51.050Z,3.90
2019-01-09T04:42:19.195Z,3.90
2019-01-09T04:44:48.371Z,3.90
2019-01-09T04:47:16.464Z,3.80
2019-01-09T04:49:44.536Z,3.90
2019-01-09T04:52:12.731Z,3.90
2019-01-09T04:54:40.815Z,3.80
2019-01-09T04:57:08.986Z,3.80
2019-01-09T04:59:37.191Z,3.80
2019-01-09T05:02:05.350Z,3.80
2019-01-09T05:04:33.513Z,3.80
2019-01-09T05:07:01.560Z,3.80
2019-01-09T05:09:29.655Z,3.80
2019-01-09T05:11:57.890Z,3.80
2019-01-09T05:14:26.063Z,3.80
2019-01-09T05:16:54.147Z,3.80
2019-01-09T05:19:22.342Z,3.80
2019-01-09T05:21:50.418Z,3.90
2019-01-09T05:24:18.622Z,3.90
2019-01-09T05:26:46.863Z,3.90
2019-01-09T05:29:14.969Z,3.80
2019-01-09T05:31:43.183Z,3.80
2019-01-09T05:34:11.444Z,3.80
2019-01-09T05:36:39.670Z,3.80
2019-01-09T05:39:08.619Z,3.80
2019-01-09T05:41:36.850Z,3.80
2019-01-09T05:44:05.081Z,3.70
2019-01-09T05:46:33.228Z,3.70
2019-01-09T05:49:01.309Z,3.80
2019-01-09T05:51:29.449Z,3.80
2019-01-09T05:53:57.584Z,3.80
2019-01-09T05:56:25.718Z,3.70
2019-01-09T05:58:53.755Z,3.80
2019-01-09T06:01:21.903Z,3.80
2019-01-09T06:03:50.010Z,3.80
2019-01-09T06:06:18.109Z,3.70
2019-01-09T06:08:46.191Z,3.70
2019-01-09T06:11:14.858Z,3.70
2019-01-09T06:13:43.050Z,3.70
2019-01-09T06:16:11.738Z,3.70
2019-01-09T06:18:40.118Z,3.70
2019-01-09T06:21:08.500Z,3.60
2019-01-09T06:23:36.667Z,3.60
2019-01-09T06:26:04.761Z,3.60
2019-01-09T06:28:32.927Z,3.70
2019-01-09T06:31:00.977Z,3.70
2019-01-09T06:33:29.156Z,3.70
2019-01-09T06:35:57.295Z,3.60
2019-01-09T06:38:25.468Z,3.60
2019-01-09T06:40:53.536Z,3.60
2019-01-09T06:43:21.887Z,3.60
2019-01-09T06:45:50.121Z,3.60
2019-01-09T06:48:18.413Z,3.60
2019-01-09T06:50:46.504Z,3.60
2019-01-09T06:53:14.607Z,3.60
2019-01-09T06:55:42.910Z,3.60
2019-01-09T06:58:10.956Z,3.60
2019-01-09T07:00:39.220Z,3.60
2019-01-09T07:03:08.713Z,3.80
2019-01-09T07:05:36.973Z,3.80
2019-01-09T07:08:05.116Z,3.80
2019-01-09T07:10:33.195Z,3.80
2019-01-09T07:13:01.283Z,3.80
2019-01-09T07:15:29.402Z,3.70
2019-01-09T07:17:57.625Z,3.80
2019-01-09T07:20:25.708Z,3.80
2019-01-09T07:22:53.859Z,3.90
2019-01-09T07:25:21.933Z,3.90
2019-01-09T07:27:50.087Z,3.80
2019-01-09T07:30:18.486Z,3.80
2019-01-09T07:32:46.590Z,3.80
2019-01-09T07:35:14.653Z,3.80
2019-01-09T07:37:45.272Z,3.80
2019-01-09T07:40:13.063Z,3.70
2019-01-09T07:42:41.390Z,3.70
2019-01-09T07:45:10.073Z,3.70
2019-01-09T07:47:38.600Z,3.70
2019-01-09T07:50:07.424Z,3.70
2019-01-09T07:52:35.747Z,3.70
2019-01-09T07:55:04.064Z,3.70
2019-01-09T07:57:32.191Z,3.80
2019-01-09T08:00:00.412Z,3.70
2019-01-09T08:02:28.549Z,3.70
2019-01-09T08:04:56.655Z,3.70
2019-01-09T08:07:25.081Z,3.70
2019-01-09T08:09:53.355Z,3.60
2019-01-09T08:12:21.686Z,3.60
2019-01-09T08:14:50.318Z,3.60
2019-01-09T08:17:18.406Z,3.60
2019-01-09T08:19:46.771Z,3.60
2019-01-09T08:22:14.916Z,3.50
2019-01-09T08:24:43.321Z,3.60
2019-01-09T08:27:11.588Z,3.60
2019-01-09T08:29:40.739Z,3.70
2019-01-09T08:32:08.989Z,3.70
2019-01-09T08:34:37.428Z,3.70
2019-01-09T08:37:06.687Z,3.70
2019-01-09T08:39:35.122Z,3.50
2019-01-09T08:42:03.358Z,3.50
2019-01-09T08:44:31.478Z,3.50
2019-01-09T08:47:02.129Z,3.60
2019-01-09T08:49:30.522Z,3.60
2019-01-09T08:51:58.618Z,3.60
2019-01-09T08:54:26.742Z,3.60
2019-01-09T08:56:54.852Z,3.60
2019-01-09T08:59:23.158Z,3.70
2019-01-09T09:01:51.240Z,3.70
2019-01-09T09:04:19.608Z,3.80
2019-01-09T09:06:48.031Z,3.80
2019-01-09T09:09:17.432Z,3.70
2019-01-09T09:11:45.486Z,3.70
2019-01-09T09:14:13.579Z,3.70
2019-01-09T09:16:41.906Z,3.70
2019-01-09T09:19:10.387Z,3.60
2019-01-09T09:21:38.767Z,3.60
2019-01-09T09:24:06.870Z,3.60
2019-01-09T09:26:35.218Z,3.60
2019-01-09T09:29:03.625Z,3.60
2019-01-09T09:31:32.232Z,3.60
2019-01-09T09:34:00.536Z,3.60
2019-01-09T09:36:28.741Z,3.60
2019-01-09T09:38:56.898Z,3.70
2019-01-09T09:41:25.075Z,3.70
2019-01-09T09:43:53.294Z,3.60
2019-01-09T09:46:21.424Z,3.60
2019-01-09T09:48:49.666Z,3.60
2019-01-09T09:51:17.786Z,3.50
2019-01-09T09:53:45.920Z,3.50
2019-01-09T09:56:14.015Z,3.60
2019-01-09T09:58:42.201Z,3.70
2019-01-09T10:01:10.777Z,3.70
2019-01-09T10:03:38.943Z,3.70
2019-01-09T10:06:07.219Z,3.70
2019-01-09T10:08:36.554Z,3.70
2019-01-09T10:11:05.901Z,3.70
2019-01-09T10:13:33.984Z,3.80
2019-01-09T10:16:02.340Z,3.80
2019-01-09T10:18:30.389Z,3.70
2019-01-09T10:20:59.095Z,3.80
2019-01-09T10:23:27.160Z,3.80
2019-01-09T10:25:55.615Z,3.80
2019-01-09T10:28:23.740Z,3.70
2019-01-09T10:30:53.040Z,3.70
2019-01-09T10:33:21.317Z,3.60
2019-01-09T10:35:49.606Z,3.60
2019-01-09T10:38:17.776Z,3.60
2019-01-09T10:40:46.052Z,3.70
2019-01-09T10:43:14.291Z,3.70
2019-01-09T10:45:42.407Z,3.70
2019-01-09T10:48:10.472Z,3.70
2019-01-09T10:50:38.690Z,3.70
2019-01-09T10:53:07.197Z,3.80
2019-01-09T10:55:35.660Z,3.80
2019-01-09T10:58:04.166Z,3.80
2019-01-09T11:00:32.608Z,3.90
2019-01-09T11:03:01.919Z,3.90
2019-01-09T11:05:30.161Z,3.80
2019-01-09T11:07:58.544Z,3.80
2019-01-09T11:10:26.597Z,3.80
2019-01-09T11:12:54.803Z,3.90
2019-01-09T11:15:22.992Z,3.90
2019-01-09T11:17:52.155Z,3.90
2019-01-09T11:20:21.455Z,3.90
2019-01-09T11:22:49.874Z,3.90
2019-01-09T11:25:25.490Z,3.90
2019-01-09T11:27:53.652Z,3.90
2019-01-09T11:30:21.702Z,3.90
2019-01-09T11:32:49.926Z,3.90
2019-01-09T11:35:22.270Z,3.90
2019-01-09T11:37:53.395Z,3.90
2019-01-09T11:40:22.033Z,3.90
2019-01-09T11:42:50.146Z,3.90
2019-01-09T11:45:18.992Z,3.90
2019-01-09T11:47:47.688Z,3.90
2019-01-09T11:50:17.165Z,3.90
2019-01-09T11:52:46.856Z,3.80
2019-01-09T11:55:15.602Z,3.90
2019-01-09T11:57:43.759Z,3.90
2019-01-09T12:00:24.128Z,3.90
2019-01-09T12:02:52.519Z,3.90
2019-01-09T12:05:20.630Z,3.90
2019-01-09T12:07:50.365Z,3.90
2019-01-09T12:10:29.508Z,3.90
2019-01-09T12:12:51.299Z,3.90
2019-01-09T12:15:19.917Z,3.90
2019-01-09T12:17:48.219Z,3.90
2019-01-09T12:20:18.944Z,3.80
2019-01-09T12:22:47.720Z,3.90
2019-01-09T12:25:16.516Z,3.90
2019-01-09T12:27:44.963Z,3.90
2019-01-09T12:30:28.229Z,3.90
2019-01-09T12:32:56.719Z,3.80
2019-01-09T12:35:25.806Z,3.80
2019-01-09T12:37:54.217Z,3.80
2019-01-09T12:40:22.291Z,3.80
2019-01-09T12:42:50.672Z,3.80
2019-01-09T12:45:19.063Z,3.80
2019-01-09T12:47:47.171Z,3.80
2019-01-09T12:50:22.459Z,3.80
2019-01-09T12:52:52.580Z,3.80
2019-01-09T12:55:20.630Z,3.80
2019-01-09T12:57:49.187Z,3.80
2019-01-09T13:00:24.616Z,3.80
2019-01-09T13:02:53.417Z,3.80
2019-01-09T13:05:22.497Z,3.80
2019-01-09T13:07:50.953Z,3.80
2019-01-09T13:10:19.257Z,3.90
2019-01-09T13:12:47.495Z,3.90
2019-01-09T13:15:15.558Z,3.90
2019-01-09T13:17:43.845Z,3.90
2019-01-09T13:20:13.415Z,3.90
2019-01-09T13:22:42.546Z,3.80
2019-01-09T13:25:14.121Z,3.90
2019-01-09T13:27:42.567Z,3.90
2019-01-09T13:30:22.349Z,3.90
2019-01-09T13:32:50.445Z,3.90
2019-01-09T13:35:18.610Z,3.90
2019-01-09T13:37:46.792Z,3.90
2019-01-09T13:40:17.830Z,3.90
2019-01-09T13:42:46.051Z,3.90
2019-01-09T13:45:17.299Z,3.90
2019-01-09T13:47:45.741Z,4.00
2019-01-09T13:50:14.960Z,4.00
2019-01-09T13:52:43.292Z,4.00
2019-01-09T13:55:13.153Z,4.00
2019-01-09T13:57:41.341Z,4.00
2019-01-09T14:00:19.668Z,3.90
2019-01-09T14:02:49.831Z,3.90
2019-01-09T14:05:18.253Z,3.80
2019-01-09T14:07:46.535Z,3.80
2019-01-09T14:10:18.335Z,3.80
2019-01-09T14:12:46.464Z,3.80
2019-01-09T14:15:17.346Z,3.80
2019-01-09T14:17:45.589Z,3.80
2019-01-09T14:20:14.212Z,3.80
2019-01-09T14:22:42.473Z,3.90
2019-01-09T14:25:11.295Z,3.80
2019-01-09T14:27:39.747Z,3.80
2019-01-09T14:30:19.449Z,3.80
2019-01-09T14:32:47.730Z,3.90
2019-01-09T14:35:16.653Z,3.90
2019-01-09T14:37:44.752Z,3.90
2019-01-09T14:40:14.304Z,3.90
2019-01-09T14:42:42.560Z,3.90
2019-01-09T14:45:11.868Z,3.80
2019-01-09T14:47:40.446Z,3.80
2019-01-09T14:50:15.256Z,3.80
2019-01-09T14:52:43.610Z,3.80
2019-01-09T14:55:12.799Z,3.80
2019-01-09T14:57:41.281Z,3.90
2019-01-09T15:00:14.791Z,3.90
2019-01-09T15:02:42.924Z,3.90
2019-01-09T15:05:11.604Z,3.90
2019-01-09T15:07:39.747Z,3.80
2019-01-09T15:10:14.107Z,3.80
2019-01-09T15:12:45.951Z,3.90
2019-01-09T15:15:15.114Z,3.90
2019-01-09T15:17:43.310Z,3.80
2019-01-09T15:20:14.777Z,3.90
2019-01-09T15:22:43.147Z,3.90
2019-01-09T15:25:11.660Z,3.90
2019-01-09T15:27:39.801Z,3.90
2019-01-09T15:30:22.211Z,3.80
2019-01-09T15:32:50.584Z,3.80
2019-01-09T15:35:18.752Z,3.80
2019-01-09T15:37:46.939Z,3.80
2019-01-09T15:40:18.806Z,3.80
2019-01-09T15:42:47.593Z,3.80
2019-01-09T15:45:15.742Z,3.90
2019-01-09T15:47:43.880Z,3.90
2019-01-09T15:50:15.970Z,3.80
2019-01-09T15:52:44.279Z,3.90
2019-01-09T15:55:14.671Z,3.90
2019-01-09T15:57:44.891Z,3.90
2019-01-09T16:00:20.757Z,3.90
2019-01-09T16:02:48.947Z,3.80
2019-01-09T16:05:17.105Z,3.80
2019-01-09T16:07:45.523Z,3.80
2019-01-09T16:10:14.953Z,3.80
2019-01-09T16:12:43.081Z,3.90
2019-01-09T16:15:13.731Z,3.80
2019-01-09T16:17:43.859Z,3.80
2019-01-09T16:20:16.719Z,3.80
2019-01-09T16:22:43.981Z,3.80
2019-01-09T16:25:13.792Z,3.80
2019-01-09T16:27:42.113Z,3.80
2019-01-09T16:30:43.268Z,3.80
2019-01-09T16:33:11.369Z,3.80
2019-01-09T16:35:39.476Z,3.80
2019-01-09T16:38:07.765Z,3.80
2019-01-09T16:40:35.944Z,3.80
2019-01-09T16:43:04.234Z,3.70
2019-01-09T16:45:33.589Z,3.80
2019-01-09T16:48:01.863Z,3.80
2019-01-09T16:50:31.235Z,3.80
2019-01-09T16:52:59.293Z,3.80
2019-01-09T16:55:27.973Z,3.80
2019-01-09T16:57:56.143Z,3.70
2019-01-09T17:00:27.245Z,3.70
2019-01-09T17:02:55.765Z,3.70
2019-01-09T17:05:23.921Z,3.70
2019-01-09T17:07:52.546Z,3.70
2019-01-09T17:10:20.735Z,3.70
2019-01-09T17:12:49.148Z,3.80
2019-01-09T17:15:17.858Z,3.80
2019-01-09T17:17:46.523Z,3.70
2019-01-09T17:20:18.205Z,3.70
2019-01-09T17:22:46.551Z,3.80
2019-01-09T17:25:15.186Z,3.80
2019-01-09T17:27:43.462Z,3.70
2019-01-09T17:30:19.301Z,3.70
2019-01-09T17:32:47.511Z,3.70
2019-01-09T17:35:15.746Z,3.70
2019-01-09T17:37:43.838Z,3.70
2019-01-09T17:40:13.576Z,3.70
2019-01-09T17:42:41.772Z,3.80
2019-01-09T17:45:10.254Z,3.80
2019-01-09T17:47:38.377Z,3.80
2019-01-09T17:50:15.090Z,3.80
2019-01-09T17:52:43.359Z,3.70
2019-01-09T17:55:11.859Z,3.70
2019-01-09T17:57:40.082Z,3.70
2019-01-09T18:00:15.527Z,3.70
2019-01-09T18:02:43.998Z,3.70
2019-01-09T18:05:12.591Z,3.70
2019-01-09T18:07:40.868Z,3.70
2019-01-09T18:10:14.808Z,3.70
2019-01-09T18:12:43.465Z,3.70
2019-01-09T18:15:12.918Z,3.70
2019-01-09T18:17:41.375Z,3.70
2019-01-09T18:20:12.203Z,3.70
2019-01-09T18:22:42.148Z,3.80
2019-01-09T18:25:15.525Z,3.70
2019-01-09T18:27:44.140Z,3.80
2019-01-09T18:30:35.401Z,3.70
2019-01-09T18:34:14.512Z,3.70
2019-01-09T18:37:37.790Z,3.70
2019-01-09T18:41:04.780Z,3.70
2019-01-09T18:43:51.606Z,3.60
2019-01-09T18:47:34.822Z,3.60
2019-01-09T18:50:46.193Z,3.50
2019-01-09T18:53:54.039Z,3.60
2019-01-09T18:56:23.803Z,3.60
2019-01-09T18:58:52.170Z,3.50
2019-01-09T19:01:20.291Z,3.50
2019-01-09T19:03:48.545Z,3.50
2019-01-09T19:06:16.746Z,3.50
2019-01-09T19:08:45.007Z,3.50
2019-01-09T19:11:13.145Z,3.50
2019-01-09T19:13:41.431Z,3.50
2019-01-09T19:16:10.191Z,3.50
2019-01-09T19:18:39.322Z,3.50
2019-01-09T19:21:07.606Z,3.40
2019-01-09T19:23:37.053Z,3.50
2019-01-09T19:26:05.320Z,3.50
2019-01-09T19:28:33.564Z,3.50
2019-01-09T19:31:02.038Z,3.40
2019-01-09T19:33:30.284Z,3.40
2019-01-09T19:35:59.796Z,3.40
2019-01-09T19:38:27.919Z,3.40
2019-01-09T19:40:56.141Z,3.40
2019-01-09T19:43:25.716Z,3.50
2019-01-09T19:45:53.909Z,3.50
2019-01-09T19:48:22.061Z,3.50
2019-01-09T19:50:50.544Z,3.50
2019-01-09T19:53:18.720Z,3.50
2019-01-09T19:55:46.917Z,3.50
2019-01-09T19:58:15.109Z,3.50
2019-01-09T20:00:43.235Z,3.50
2019-01-09T20:03:11.455Z,3.50
2019-01-09T20:05:39.612Z,3.40
2019-01-09T20:08:08.000Z,3.40
2019-01-09T20:10:36.236Z,3.30
2019-01-09T20:13:06.129Z,3.30
2019-01-09T20:15:35.739Z,3.30
2019-01-09T20:18:04.487Z,3.40
2019-01-09T20:20:32.597Z,3.40
2019-01-09T20:23:01.059Z,3.50
2019-01-09T20:25:29.761Z,3.50
2019-01-09T20:27:57.831Z,3.50
2019-01-09T20:30:29.260Z,3.50
2019-01-09T20:32:57.358Z,3.40
2019-01-09T20:35:25.509Z,3.30
2019-01-09T20:37:53.660Z,3.20
2019-01-09T20:40:22.001Z,3.20
2019-01-09T20:42:50.074Z,3.20
2019-01-09T20:45:19.086Z,3.20
2019-01-09T20:47:47.500Z,3.20
2019-01-09T20:50:23.410Z,3.20
2019-01-09T20:52:51.919Z,3.20
2019-01-09T20:55:20.532Z,3.20
2019-01-09T20:57:49.592Z,3.20
2019-01-09T21:00:27.023Z,3.20
2019-01-09T21:03:01.979Z,3.20
2019-01-09T21:05:34.479Z,3.20
2019-01-09T21:08:03.712Z,3.20
2019-01-09T21:10:31.794Z,3.20
2019-01-09T21:13:00.717Z,3.20
2019-01-09T21:15:29.178Z,3.10
2019-01-09T21:17:57.456Z,3.20
2019-01-09T21:20:25.551Z,3.20
2019-01-09T21:22:55.137Z,3.20
2019-01-09T21:25:23.258Z,3.20
2019-01-09T21:27:51.485Z,3.20
2019-01-09T21:30:22.735Z,3.20
2019-01-09T21:32:52.570Z,3.20
2019-01-09T21:35:22.575Z,3.20
2019-01-09T21:37:50.775Z,3.30
2019-01-09T21:40:27.583Z,3.30
2019-01-09T21:42:55.862Z,3.40
2019-01-09T21:45:24.989Z,3.30
2019-01-09T21:47:53.386Z,3.40
2019-01-09T21:50:24.089Z,3.30
2019-01-09T21:52:52.567Z,3.30
2019-01-09T21:55:21.234Z,3.30
2019-01-09T21:57:49.362Z,3.30
2019-01-09T22:00:23.839Z,3.30
2019-01-09T22:02:52.483Z,3.30
2019-01-09T22:05:23.137Z,3.30
2019-01-09T22:07:51.572Z,3.20
2019-01-09T22:10:27.448Z,3.10
2019-01-09T22:12:56.098Z,3.20
2019-01-09T22:15:24.729Z,3.10
2019-01-09T22:17:53.025Z,3.10
2019-01-09T22:20:21.315Z,3.20
2019-01-09T22:22:52.358Z,3.20
2019-01-09T22:25:21.226Z,3.30
2019-01-09T22:27:49.961Z,3.40
2019-01-09T22:30:22.122Z,3.80
2019-01-09T22:32:50.682Z,3.90
2019-01-09T22:35:18.834Z,3.90
2019-01-09T22:37:47.200Z,4.00
2019-01-09T22:40:17.985Z,3.90
2019-01-09T22:42:48.526Z,3.90
2019-01-09T22:45:17.247Z,4.00
2019-01-09T22:47:46.642Z,3.80
2019-01-09T22:50:20.563Z,3.50
2019-01-09T22:52:49.008Z,3.40
2019-01-09T22:55:17.151Z,3.20
2019-01-09T22:57:45.572Z,3.20
2019-01-09T23:00:45.171Z,3.10
2019-01-09T23:03:14.302Z,3.10
2019-01-09T23:05:42.689Z,3.00
2019-01-09T23:08:10.755Z,3.10
2019-01-09T23:10:38.998Z,3.10
2019-01-09T23:13:07.376Z,3.10
2019-01-09T23:15:35.784Z,3.00
2019-01-09T23:18:04.824Z,3.00
2019-01-09T23:20:32.907Z,3.00
2019-01-09T23:23:02.457Z,3.10
2019-01-09T23:25:30.730Z,3.00
2019-01-09T23:27:59.041Z,3.00
2019-01-09T23:30:27.579Z,3.00
2019-01-09T23:32:55.863Z,3.00
2019-01-09T23:35:24.258Z,3.00
2019-01-09T23:37:52.557Z,3.00
2019-01-09T23:40:20.823Z,2.90
2019-01-09T23:42:48.933Z,2.90
2019-01-09T23:45:17.182Z,2.80
2019-01-09T23:47:45.632Z,2.80
2019-01-09T23:50:14.031Z,2.90
2019-01-09T23:52:42.167Z,2.80
2019-01-09T23:55:11.223Z,2.80
2019-01-09T23:57:39.575Z,2.80
